sensor_id;sensor_type;location;lat;lon;timestamp;P1;durP1;ratioP1;P2;durP2;ratioP2
54923;SDS011;40825;52.270;20.984;2024-01-15T00:02:16;11.30;;;5.80;;
54923;SDS011;40825;52.270;20.984;2024-01-15T00:04:41;14.60;;;6.00;;
54923;SDS011;40825;52.270;20.984;2024-01-15T00:07:08;13.10;;;6.50;;
54923;SDS011;40825;52.270;20.984;2024-01-15T00:09:34;13.80;;;6.50;;
54923;SDS011;40825;52.270;20.984;2024-01-15T00:12:00;12.50;;;6.10;;
54923;SDS011;40825;52.270;20.984;2024-01-15T00:14:27;14.40;;;6.10;;
54923;SDS011;40825;52.270;20.984;2024-01-15T00:16:53;12.20;;;6.00;;
54923;SDS011;40825;52.270;20.984;2024-01-15T00:19:23;13.40;;;6.30;;
54923;SDS011;40825;52.270;20.984;2024-01-15T00:24:15;14.30;;;7.30;;
54923;SDS011;40825;52.270;20.984;2024-01-15T00:26:40;14.10;;;6.60;;
54923;SDS011;40825;52.270;20.984;2024-01-15T00:29:06;14.50;;;6.10;;
54923;SDS011;40825;52.270;20.984;2024-01-15T00:31:33;15.50;;;7.00;;
54923;SDS011;40825;52.270;20.984;2024-01-15T00:33:58;14.90;;;7.20;;
54923;SDS011;40825;52.270;20.984;2024-01-15T00:36:24;13.40;;;6.80;;
54923;SDS011;40825;52.270;20.984;2024-01-15T00:38:50;16.00;;;7.50;;
54923;SDS011;40825;52.270;20.984;2024-01-15T00:41:16;14.00;;;7.00;;
54923;SDS011;40825;52.270;20.984;2024-01-15T00:43:44;13.90;;;6.60;;
54923;SDS011;40825;52.270;20.984;2024-01-15T00:46:10;16.80;;;7.30;;
54923;SDS011;40825;52.270;20.984;2024-01-15T00:48:36;13.70;;;6.50;;
54923;SDS011;40825;52.270;20.984;2024-01-15T00:51:02;15.10;;;7.10;;
54923;SDS011;40825;52.270;20.984;2024-01-15T00:53:32;14.10;;;7.00;;
54923;SDS011;40825;52.270;20.984;2024-01-15T00:55:58;12.50;;;6.60;;
54923;SDS011;40825;52.270;20.984;2024-01-15T00:58:25;14.50;;;5.90;;
54923;SDS011;40825;52.270;20.984;2024-01-15T01:00:51;17.70;;;7.90;;
54923;SDS011;40825;52.270;20.984;2024-01-15T01:03:16;12.90;;;6.80;;
54923;SDS011;40825;52.270;20.984;2024-01-15T01:05:42;15.50;;;6.80;;
54923;SDS011;40825;52.270;20.984;2024-01-15T01:08:09;13.90;;;6.10;;
54923;SDS011;40825;52.270;20.984;2024-01-15T01:10:34;13.60;;;5.90;;
54923;SDS011;40825;52.270;20.984;2024-01-15T01:13:00;15.10;;;6.80;;
54923;SDS011;40825;52.270;20.984;2024-01-15T01:15:26;12.50;;;6.40;;
54923;SDS011;40825;52.270;20.984;2024-01-15T01:17:52;15.90;;;8.70;;
54923;SDS011;40825;52.270;20.984;2024-01-15T01:20:18;14.40;;;6.70;;
54923;SDS011;40825;52.270;20.984;2024-01-15T01:22:43;14.30;;;6.70;;
54923;SDS011;40825;52.270;20.984;2024-01-15T01:25:09;16.40;;;7.20;;
54923;SDS011;40825;52.270;20.984;2024-01-15T01:27:35;17.30;;;7.50;;
54923;SDS011;40825;52.270;20.984;2024-01-15T01:30:01;17.40;;;7.40;;
54923;SDS011;40825;52.270;20.984;2024-01-15T01:32:27;14.40;;;7.30;;
54923;SDS011;40825;52.270;20.984;2024-01-15T01:34:53;14.70;;;7.30;;
54923;SDS011;40825;52.270;20.984;2024-01-15T01:37:18;20.70;;;7.90;;
54923;SDS011;40825;52.270;20.984;2024-01-15T01:39:44;14.20;;;8.00;;
54923;SDS011;40825;52.270;20.984;2024-01-15T01:42:10;19.20;;;7.20;;
54923;SDS011;40825;52.270;20.984;2024-01-15T01:44:36;16.70;;;8.10;;
54923;SDS011;40825;52.270;20.984;2024-01-15T01:47:02;17.10;;;7.70;;
54923;SDS011;40825;52.270;20.984;2024-01-15T01:49:29;16.30;;;8.20;;
54923;SDS011;40825;52.270;20.984;2024-01-15T01:51:56;17.00;;;8.30;;
54923;SDS011;40825;52.270;20.984;2024-01-15T01:54:23;16.70;;;7.70;;
54923;SDS011;40825;52.270;20.984;2024-01-15T01:56:50;14.80;;;7.90;;
54923;SDS011;40825;52.270;20.984;2024-01-15T01:59:17;13.40;;;7.70;;
54923;SDS011;40825;52.270;20.984;2024-01-15T02:01:43;15.00;;;8.20;;
54923;SDS011;40825;52.270;20.984;2024-01-15T02:04:10;16.00;;;7.60;;
54923;SDS011;40825;52.270;20.984;2024-01-15T02:06:37;16.80;;;7.60;;
54923;SDS011;40825;52.270;20.984;2024-01-15T02:09:03;15.00;;;7.80;;
54923;SDS011;40825;52.270;20.984;2024-01-15T02:11:29;15.40;;;7.60;;
54923;SDS011;40825;52.270;20.984;2024-01-15T02:13:55;18.60;;;9.10;;
54923;SDS011;40825;52.270;20.984;2024-01-15T02:16:21;15.50;;;7.90;;
54923;SDS011;40825;52.270;20.984;2024-01-15T02:18:46;15.80;;;7.80;;
54923;SDS011;40825;52.270;20.984;2024-01-15T02:21:12;17.30;;;9.20;;
54923;SDS011;40825;52.270;20.984;2024-01-15T02:23:38;17.50;;;7.70;;
54923;SDS011;40825;52.270;20.984;2024-01-15T02:26:04;17.70;;;8.80;;
54923;SDS011;40825;52.270;20.984;2024-01-15T02:28:30;18.40;;;8.80;;
54923;SDS011;40825;52.270;20.984;2024-01-15T02:30:58;18.40;;;9.60;;
54923;SDS011;40825;52.270;20.984;2024-01-15T02:33:23;17.20;;;8.10;;
54923;SDS011;40825;52.270;20.984;2024-01-15T02:35:49;14.90;;;7.40;;
54923;SDS011;40825;52.270;20.984;2024-01-15T02:38:20;18.40;;;8.70;;
54923;SDS011;40825;52.270;20.984;2024-01-15T02:40:46;14.70;;;7.80;;
54923;SDS011;40825;52.270;20.984;2024-01-15T02:43:12;18.20;;;9.30;;
54923;SDS011;40825;52.270;20.984;2024-01-15T02:45:38;16.80;;;8.30;;
54923;SDS011;40825;52.270;20.984;2024-01-15T02:48:04;20.40;;;8.10;;
54923;SDS011;40825;52.270;20.984;2024-01-15T02:50:30;14.90;;;7.40;;
54923;SDS011;40825;52.270;20.984;2024-01-15T02:52:56;16.10;;;8.40;;
54923;SDS011;40825;52.270;20.984;2024-01-15T02:55:21;16.20;;;8.60;;
54923;SDS011;40825;52.270;20.984;2024-01-15T02:57:47;18.20;;;8.80;;
54923;SDS011;40825;52.270;20.984;2024-01-15T03:00:12;18.80;;;9.10;;
54923;SDS011;40825;52.270;20.984;2024-01-15T03:02:39;18.70;;;8.70;;
54923;SDS011;40825;52.270;20.984;2024-01-15T03:05:08;16.90;;;8.30;;
54923;SDS011;40825;52.270;20.984;2024-01-15T03:07:37;18.40;;;9.30;;
54923;SDS011;40825;52.270;20.984;2024-01-15T03:10:04;17.30;;;8.10;;
54923;SDS011;40825;52.270;20.984;2024-01-15T03:12:31;17.30;;;8.00;;
54923;SDS011;40825;52.270;20.984;2024-01-15T03:14:57;17.00;;;8.10;;
54923;SDS011;40825;52.270;20.984;2024-01-15T03:17:22;17.10;;;8.40;;
54923;SDS011;40825;52.270;20.984;2024-01-15T03:19:48;16.70;;;8.00;;
54923;SDS011;40825;52.270;20.984;2024-01-15T03:22:15;19.00;;;8.30;;
54923;SDS011;40825;52.270;20.984;2024-01-15T03:24:41;17.60;;;8.30;;
54923;SDS011;40825;52.270;20.984;2024-01-15T03:27:07;19.30;;;8.60;;
54923;SDS011;40825;52.270;20.984;2024-01-15T03:29:33;18.50;;;9.70;;
54923;SDS011;40825;52.270;20.984;2024-01-15T03:31:58;16.40;;;8.20;;
54923;SDS011;40825;52.270;20.984;2024-01-15T03:34:24;17.80;;;8.40;;
54923;SDS011;40825;52.270;20.984;2024-01-15T03:36:49;18.20;;;8.50;;
54923;SDS011;40825;52.270;20.984;2024-01-15T03:39:15;18.20;;;9.00;;
54923;SDS011;40825;52.270;20.984;2024-01-15T03:41:41;18.20;;;9.00;;
54923;SDS011;40825;52.270;20.984;2024-01-15T03:44:14;19.00;;;9.10;;
54923;SDS011;40825;52.270;20.984;2024-01-15T03:46:39;18.10;;;8.00;;
54923;SDS011;40825;52.270;20.984;2024-01-15T03:49:05;20.70;;;9.90;;
54923;SDS011;40825;52.270;20.984;2024-01-15T03:51:31;18.30;;;8.80;;
54923;SDS011;40825;52.270;20.984;2024-01-15T03:53:56;20.70;;;9.80;;
54923;SDS011;40825;52.270;20.984;2024-01-15T03:56:22;19.30;;;9.40;;
54923;SDS011;40825;52.270;20.984;2024-01-15T03:58:48;17.80;;;8.30;;
54923;SDS011;40825;52.270;20.984;2024-01-15T04:01:13;18.00;;;9.00;;
54923;SDS011;40825;52.270;20.984;2024-01-15T04:03:39;18.50;;;8.20;;
54923;SDS011;40825;52.270;20.984;2024-01-15T04:06:12;18.80;;;7.90;;
54923;SDS011;40825;52.270;20.984;2024-01-15T04:08:41;20.10;;;9.20;;
54923;SDS011;40825;52.270;20.984;2024-01-15T04:11:06;20.00;;;8.80;;
54923;SDS011;40825;52.270;20.984;2024-01-15T04:13:32;18.80;;;8.60;;
54923;SDS011;40825;52.270;20.984;2024-01-15T04:16:04;16.60;;;7.40;;
54923;SDS011;40825;52.270;20.984;2024-01-15T04:18:29;18.60;;;8.60;;
54923;SDS011;40825;52.270;20.984;2024-01-15T04:20:58;16.80;;;7.60;;
54923;SDS011;40825;52.270;20.984;2024-01-15T04:23:26;15.90;;;7.80;;
54923;SDS011;40825;52.270;20.984;2024-01-15T04:25:52;20.80;;;8.60;;
54923;SDS011;40825;52.270;20.984;2024-01-15T04:28:18;14.70;;;7.40;;
54923;SDS011;40825;52.270;20.984;2024-01-15T04:30:55;17.50;;;8.30;;
54923;SDS011;40825;52.270;20.984;2024-01-15T04:33:20;16.60;;;7.70;;
54923;SDS011;40825;52.270;20.984;2024-01-15T04:35:55;14.50;;;6.80;;
54923;SDS011;40825;52.270;20.984;2024-01-15T04:38:24;18.20;;;7.80;;
54923;SDS011;40825;52.270;20.984;2024-01-15T04:40:57;16.20;;;7.20;;
54923;SDS011;40825;52.270;20.984;2024-01-15T04:43:25;17.30;;;6.70;;
54923;SDS011;40825;52.270;20.984;2024-01-15T04:45:53;15.10;;;6.40;;
54923;SDS011;40825;52.270;20.984;2024-01-15T04:51:45;13.80;;;6.30;;
54923;SDS011;40825;52.270;20.984;2024-01-15T04:54:13;14.80;;;6.80;;
54923;SDS011;40825;52.270;20.984;2024-01-15T04:56:43;17.40;;;6.30;;
54923;SDS011;40825;52.270;20.984;2024-01-15T04:59:10;15.30;;;7.00;;
54923;SDS011;40825;52.270;20.984;2024-01-15T05:01:36;16.20;;;7.80;;
54923;SDS011;40825;52.270;20.984;2024-01-15T05:04:14;14.80;;;6.80;;
54923;SDS011;40825;52.270;20.984;2024-01-15T05:06:40;15.70;;;7.10;;
54923;SDS011;40825;52.270;20.984;2024-01-15T05:09:06;16.90;;;7.90;;
54923;SDS011;40825;52.270;20.984;2024-01-15T05:11:32;14.00;;;7.00;;
54923;SDS011;40825;52.270;20.984;2024-01-15T05:13:57;14.80;;;7.30;;
54923;SDS011;40825;52.270;20.984;2024-01-15T05:16:23;16.80;;;7.70;;
54923;SDS011;40825;52.270;20.984;2024-01-15T05:18:48;14.90;;;7.20;;
54923;SDS011;40825;52.270;20.984;2024-01-15T05:21:14;14.90;;;6.90;;
54923;SDS011;40825;52.270;20.984;2024-01-15T05:23:39;15.60;;;8.80;;
54923;SDS011;40825;52.270;20.984;2024-01-15T05:26:05;14.90;;;6.80;;
54923;SDS011;40825;52.270;20.984;2024-01-15T05:28:30;16.20;;;7.00;;
54923;SDS011;40825;52.270;20.984;2024-01-15T05:30:55;15.50;;;8.00;;
54923;SDS011;40825;52.270;20.984;2024-01-15T05:33:22;16.40;;;7.60;;
54923;SDS011;40825;52.270;20.984;2024-01-15T05:38:16;15.10;;;7.70;;
54923;SDS011;40825;52.270;20.984;2024-01-15T05:40:42;14.80;;;7.50;;
54923;SDS011;40825;52.270;20.984;2024-01-15T05:43:07;16.10;;;7.20;;
54923;SDS011;40825;52.270;20.984;2024-01-15T05:45:34;16.60;;;7.20;;
54923;SDS011;40825;52.270;20.984;2024-01-15T05:48:00;14.20;;;6.30;;
54923;SDS011;40825;52.270;20.984;2024-01-15T05:50:26;14.20;;;7.20;;
54923;SDS011;40825;52.270;20.984;2024-01-15T05:52:51;18.60;;;8.20;;
54923;SDS011;40825;52.270;20.984;2024-01-15T05:55:17;14.60;;;7.40;;
54923;SDS011;40825;52.270;20.984;2024-01-15T05:57:44;15.70;;;7.60;;
54923;SDS011;40825;52.270;20.984;2024-01-15T06:00:10;17.40;;;7.70;;
54923;SDS011;40825;52.270;20.984;2024-01-15T06:02:37;16.00;;;7.70;;
54923;SDS011;40825;52.270;20.984;2024-01-15T06:05:03;15.30;;;7.90;;
54923;SDS011;40825;52.270;20.984;2024-01-15T06:07:29;13.40;;;6.50;;
54923;SDS011;40825;52.270;20.984;2024-01-15T06:09:54;15.20;;;7.80;;
54923;SDS011;40825;52.270;20.984;2024-01-15T06:12:22;15.00;;;7.30;;
54923;SDS011;40825;52.270;20.984;2024-01-15T06:14:48;16.00;;;7.70;;
54923;SDS011;40825;52.270;20.984;2024-01-15T06:17:13;16.10;;;7.50;;
54923;SDS011;40825;52.270;20.984;2024-01-15T06:19:39;13.50;;;7.00;;
54923;SDS011;40825;52.270;20.984;2024-01-15T06:22:04;14.10;;;7.70;;
54923;SDS011;40825;52.270;20.984;2024-01-15T06:24:30;15.50;;;7.20;;
54923;SDS011;40825;52.270;20.984;2024-01-15T06:26:55;17.30;;;8.10;;
54923;SDS011;40825;52.270;20.984;2024-01-15T06:29:20;13.40;;;6.30;;
54923;SDS011;40825;52.270;20.984;2024-01-15T06:31:46;16.00;;;8.40;;
54923;SDS011;40825;52.270;20.984;2024-01-15T06:34:11;15.80;;;7.30;;
54923;SDS011;40825;52.270;20.984;2024-01-15T06:36:37;16.80;;;6.80;;
54923;SDS011;40825;52.270;20.984;2024-01-15T06:39:03;17.00;;;8.00;;
54923;SDS011;40825;52.270;20.984;2024-01-15T06:41:28;11.80;;;6.60;;
54923;SDS011;40825;52.270;20.984;2024-01-15T06:43:54;15.50;;;7.20;;
54923;SDS011;40825;52.270;20.984;2024-01-15T06:46:21;15.80;;;7.50;;
54923;SDS011;40825;52.270;20.984;2024-01-15T06:48:47;18.80;;;8.40;;
54923;SDS011;40825;52.270;20.984;2024-01-15T06:51:12;13.90;;;6.70;;
54923;SDS011;40825;52.270;20.984;2024-01-15T06:53:38;16.20;;;8.40;;
54923;SDS011;40825;52.270;20.984;2024-01-15T06:56:03;14.20;;;7.50;;
54923;SDS011;40825;52.270;20.984;2024-01-15T06:58:30;15.40;;;7.80;;
54923;SDS011;40825;52.270;20.984;2024-01-15T07:00:56;16.40;;;7.90;;
54923;SDS011;40825;52.270;20.984;2024-01-15T07:03:22;15.90;;;7.70;;
54923;SDS011;40825;52.270;20.984;2024-01-15T07:05:47;16.50;;;6.70;;
54923;SDS011;40825;52.270;20.984;2024-01-15T07:08:13;14.40;;;7.60;;
54923;SDS011;40825;52.270;20.984;2024-01-15T07:10:38;13.60;;;7.70;;
54923;SDS011;40825;52.270;20.984;2024-01-15T07:13:04;18.50;;;8.20;;
54923;SDS011;40825;52.270;20.984;2024-01-15T07:15:30;15.10;;;7.10;;
54923;SDS011;40825;52.270;20.984;2024-01-15T07:17:56;17.80;;;7.80;;
54923;SDS011;40825;52.270;20.984;2024-01-15T07:20:21;15.70;;;7.70;;
54923;SDS011;40825;52.270;20.984;2024-01-15T07:22:47;16.70;;;8.10;;
54923;SDS011;40825;52.270;20.984;2024-01-15T07:25:13;18.50;;;8.00;;
54923;SDS011;40825;52.270;20.984;2024-01-15T07:27:38;19.30;;;8.70;;
54923;SDS011;40825;52.270;20.984;2024-01-15T07:30:04;15.40;;;7.50;;
54923;SDS011;40825;52.270;20.984;2024-01-15T07:32:31;17.70;;;8.40;;
54923;SDS011;40825;52.270;20.984;2024-01-15T07:34:57;16.50;;;7.50;;
54923;SDS011;40825;52.270;20.984;2024-01-15T07:37:24;15.60;;;7.40;;
54923;SDS011;40825;52.270;20.984;2024-01-15T07:39:50;18.50;;;7.30;;
54923;SDS011;40825;52.270;20.984;2024-01-15T07:42:15;18.40;;;8.80;;
54923;SDS011;40825;52.270;20.984;2024-01-15T07:44:41;15.20;;;7.50;;
54923;SDS011;40825;52.270;20.984;2024-01-15T07:47:06;18.30;;;8.10;;
54923;SDS011;40825;52.270;20.984;2024-01-15T07:49:33;14.10;;;6.80;;
54923;SDS011;40825;52.270;20.984;2024-01-15T07:52:00;15.60;;;6.70;;
54923;SDS011;40825;52.270;20.984;2024-01-15T07:54:25;16.60;;;7.50;;
54923;SDS011;40825;52.270;20.984;2024-01-15T07:56:58;13.30;;;6.50;;
54923;SDS011;40825;52.270;20.984;2024-01-15T07:59:25;15.00;;;7.00;;
54923;SDS011;40825;52.270;20.984;2024-01-15T08:01:51;14.00;;;6.20;;
54923;SDS011;40825;52.270;20.984;2024-01-15T08:04:17;12.40;;;6.00;;
54923;SDS011;40825;52.270;20.984;2024-01-15T08:06:43;15.00;;;6.40;;
54923;SDS011;40825;52.270;20.984;2024-01-15T08:09:10;14.10;;;7.00;;
54923;SDS011;40825;52.270;20.984;2024-01-15T08:11:35;14.20;;;6.90;;
54923;SDS011;40825;52.270;20.984;2024-01-15T08:14:01;17.80;;;7.90;;
54923;SDS011;40825;52.270;20.984;2024-01-15T08:16:26;16.40;;;8.30;;
54923;SDS011;40825;52.270;20.984;2024-01-15T08:18:52;17.80;;;7.40;;
54923;SDS011;40825;52.270;20.984;2024-01-15T08:21:18;14.30;;;7.60;;
54923;SDS011;40825;52.270;20.984;2024-01-15T08:23:44;16.40;;;7.20;;
54923;SDS011;40825;52.270;20.984;2024-01-15T08:26:10;13.50;;;6.00;;
54923;SDS011;40825;52.270;20.984;2024-01-15T08:28:36;12.60;;;6.60;;
54923;SDS011;40825;52.270;20.984;2024-01-15T08:31:01;14.60;;;7.60;;
54923;SDS011;40825;52.270;20.984;2024-01-15T08:33:28;15.00;;;6.40;;
54923;SDS011;40825;52.270;20.984;2024-01-15T08:35:54;14.50;;;6.50;;
54923;SDS011;40825;52.270;20.984;2024-01-15T08:38:20;13.80;;;6.00;;
54923;SDS011;40825;52.270;20.984;2024-01-15T08:40:45;12.00;;;5.90;;
54923;SDS011;40825;52.270;20.984;2024-01-15T08:43:11;10.70;;;5.30;;
54923;SDS011;40825;52.270;20.984;2024-01-15T08:45:36;13.00;;;5.60;;
54923;SDS011;40825;52.270;20.984;2024-01-15T08:48:02;13.60;;;5.80;;
54923;SDS011;40825;52.270;20.984;2024-01-15T08:50:29;13.30;;;5.40;;
54923;SDS011;40825;52.270;20.984;2024-01-15T08:52:55;12.70;;;5.50;;
54923;SDS011;40825;52.270;20.984;2024-01-15T08:55:21;11.30;;;5.30;;
54923;SDS011;40825;52.270;20.984;2024-01-15T08:57:48;12.10;;;6.10;;
54923;SDS011;40825;52.270;20.984;2024-01-15T09:00:13;9.60;;;4.50;;
54923;SDS011;40825;52.270;20.984;2024-01-15T09:02:39;10.10;;;5.00;;
54923;SDS011;40825;52.270;20.984;2024-01-15T09:05:05;12.60;;;5.90;;
54923;SDS011;40825;52.270;20.984;2024-01-15T09:07:31;13.10;;;7.00;;
54923;SDS011;40825;52.270;20.984;2024-01-15T09:09:57;12.80;;;6.00;;
54923;SDS011;40825;52.270;20.984;2024-01-15T09:12:25;13.00;;;5.50;;
54923;SDS011;40825;52.270;20.984;2024-01-15T09:14:51;11.90;;;5.60;;
54923;SDS011;40825;52.270;20.984;2024-01-15T09:17:17;13.20;;;6.00;;
54923;SDS011;40825;52.270;20.984;2024-01-15T09:19:43;13.90;;;6.80;;
54923;SDS011;40825;52.270;20.984;2024-01-15T09:22:09;11.70;;;5.90;;
54923;SDS011;40825;52.270;20.984;2024-01-15T09:24:35;13.50;;;5.70;;
54923;SDS011;40825;52.270;20.984;2024-01-15T09:27:00;12.40;;;5.40;;
54923;SDS011;40825;52.270;20.984;2024-01-15T09:29:26;13.90;;;5.70;;
54923;SDS011;40825;52.270;20.984;2024-01-15T09:31:51;12.00;;;5.00;;
54923;SDS011;40825;52.270;20.984;2024-01-15T09:34:17;11.60;;;5.10;;
54923;SDS011;40825;52.270;20.984;2024-01-15T09:36:43;9.60;;;5.00;;
54923;SDS011;40825;52.270;20.984;2024-01-15T09:39:09;13.00;;;4.80;;
54923;SDS011;40825;52.270;20.984;2024-01-15T09:41:36;9.30;;;4.50;;
54923;SDS011;40825;52.270;20.984;2024-01-15T09:44:03;10.70;;;4.80;;
54923;SDS011;40825;52.270;20.984;2024-01-15T09:46:29;11.20;;;4.80;;
54923;SDS011;40825;52.270;20.984;2024-01-15T09:48:59;9.70;;;3.80;;
54923;SDS011;40825;52.270;20.984;2024-01-15T09:51:28;10.30;;;4.90;;
54923;SDS011;40825;52.270;20.984;2024-01-15T09:53:57;10.30;;;4.10;;
54923;SDS011;40825;52.270;20.984;2024-01-15T09:56:23;11.20;;;4.70;;
54923;SDS011;40825;52.270;20.984;2024-01-15T09:58:49;10.50;;;3.90;;
54923;SDS011;40825;52.270;20.984;2024-01-15T10:01:17;8.70;;;3.60;;
54923;SDS011;40825;52.270;20.984;2024-01-15T10:03:42;10.30;;;3.90;;
54923;SDS011;40825;52.270;20.984;2024-01-15T10:06:08;10.50;;;4.50;;
54923;SDS011;40825;52.270;20.984;2024-01-15T10:08:34;10.50;;;3.80;;
54923;SDS011;40825;52.270;20.984;2024-01-15T10:11:02;10.10;;;3.90;;
54923;SDS011;40825;52.270;20.984;2024-01-15T10:13:30;10.40;;;3.60;;
54923;SDS011;40825;52.270;20.984;2024-01-15T10:15:55;9.00;;;3.80;;
54923;SDS011;40825;52.270;20.984;2024-01-15T10:18:21;12.10;;;3.80;;
54923;SDS011;40825;52.270;20.984;2024-01-15T10:20:46;10.60;;;3.70;;
54923;SDS011;40825;52.270;20.984;2024-01-15T10:23:13;9.70;;;3.90;;
54923;SDS011;40825;52.270;20.984;2024-01-15T10:25:41;10.80;;;3.70;;
54923;SDS011;40825;52.270;20.984;2024-01-15T10:28:07;8.70;;;3.70;;
54923;SDS011;40825;52.270;20.984;2024-01-15T10:30:33;10.50;;;4.20;;
54923;SDS011;40825;52.270;20.984;2024-01-15T10:32:59;7.70;;;3.40;;
54923;SDS011;40825;52.270;20.984;2024-01-15T10:35:35;9.80;;;3.80;;
54923;SDS011;40825;52.270;20.984;2024-01-15T10:38:02;9.70;;;3.20;;
54923;SDS011;40825;52.270;20.984;2024-01-15T10:40:28;10.00;;;4.10;;
54923;SDS011;40825;52.270;20.984;2024-01-15T10:42:54;10.00;;;4.10;;
54923;SDS011;40825;52.270;20.984;2024-01-15T10:45:20;8.60;;;3.80;;
54923;SDS011;40825;52.270;20.984;2024-01-15T10:47:45;13.70;;;5.10;;
54923;SDS011;40825;52.270;20.984;2024-01-15T10:50:11;10.10;;;3.80;;
54923;SDS011;40825;52.270;20.984;2024-01-15T10:52:37;9.80;;;3.90;;
54923;SDS011;40825;52.270;20.984;2024-01-15T10:55:08;11.80;;;4.70;;
54923;SDS011;40825;52.270;20.984;2024-01-15T10:57:36;10.90;;;4.60;;
54923;SDS011;40825;52.270;20.984;2024-01-15T11:00:03;8.70;;;4.30;;
54923;SDS011;40825;52.270;20.984;2024-01-15T11:02:34;10.00;;;4.30;;
54923;SDS011;40825;52.270;20.984;2024-01-15T11:05:01;10.20;;;3.60;;
54923;SDS011;40825;52.270;20.984;2024-01-15T11:07:27;10.60;;;4.00;;
54923;SDS011;40825;52.270;20.984;2024-01-15T11:09:54;9.30;;;3.90;;
54923;SDS011;40825;52.270;20.984;2024-01-15T11:12:20;12.20;;;4.40;;
54923;SDS011;40825;52.270;20.984;2024-01-15T11:14:46;12.60;;;4.50;;
54923;SDS011;40825;52.270;20.984;2024-01-15T11:17:13;8.70;;;4.50;;
54923;SDS011;40825;52.270;20.984;2024-01-15T11:19:46;10.90;;;5.20;;
54923;SDS011;40825;52.270;20.984;2024-01-15T11:24:53;12.50;;;5.30;;
54923;SDS011;40825;52.270;20.984;2024-01-15T11:27:18;12.00;;;4.50;;
54923;SDS011;40825;52.270;20.984;2024-01-15T11:30:11;8.90;;;3.80;;
54923;SDS011;40825;52.270;20.984;2024-01-15T11:32:37;9.10;;;3.70;;
54923;SDS011;40825;52.270;20.984;2024-01-15T11:43:03;11.60;;;4.20;;
54923;SDS011;40825;52.270;20.984;2024-01-15T11:45:30;9.60;;;3.60;;
54923;SDS011;40825;52.270;20.984;2024-01-15T11:48:11;10.00;;;3.60;;
54923;SDS011;40825;52.270;20.984;2024-01-15T11:50:49;11.20;;;4.10;;
54923;SDS011;40825;52.270;20.984;2024-01-15T11:53:17;12.60;;;3.60;;
54923;SDS011;40825;52.270;20.984;2024-01-15T11:55:44;8.60;;;3.40;;
54923;SDS011;40825;52.270;20.984;2024-01-15T11:58:11;8.50;;;3.80;;
54923;SDS011;40825;52.270;20.984;2024-01-15T12:00:44;11.50;;;4.30;;
54923;SDS011;40825;52.270;20.984;2024-01-15T12:03:12;10.70;;;4.40;;
54923;SDS011;40825;52.270;20.984;2024-01-15T12:05:38;11.10;;;4.10;;
54923;SDS011;40825;52.270;20.984;2024-01-15T12:08:04;11.00;;;4.10;;
54923;SDS011;40825;52.270;20.984;2024-01-15T12:10:36;9.60;;;4.00;;
54923;SDS011;40825;52.270;20.984;2024-01-15T12:13:10;10.70;;;4.20;;
54923;SDS011;40825;52.270;20.984;2024-01-15T12:15:37;11.20;;;4.70;;
54923;SDS011;40825;52.270;20.984;2024-01-15T12:18:06;9.90;;;3.70;;
54923;SDS011;40825;52.270;20.984;2024-01-15T12:20:33;9.60;;;4.80;;
54923;SDS011;40825;52.270;20.984;2024-01-15T12:23:01;8.90;;;4.20;;
54923;SDS011;40825;52.270;20.984;2024-01-15T12:25:31;9.60;;;3.90;;
54923;SDS011;40825;52.270;20.984;2024-01-15T12:27:58;10.40;;;4.40;;
54923;SDS011;40825;52.270;20.984;2024-01-15T12:30:25;11.20;;;4.20;;
54923;SDS011;40825;52.270;20.984;2024-01-15T12:32:52;10.20;;;4.60;;
54923;SDS011;40825;52.270;20.984;2024-01-15T12:35:17;12.10;;;4.70;;
54923;SDS011;40825;52.270;20.984;2024-01-15T12:37:43;13.80;;;4.60;;
54923;SDS011;40825;52.270;20.984;2024-01-15T12:40:11;14.20;;;4.60;;
54923;SDS011;40825;52.270;20.984;2024-01-15T12:42:37;14.00;;;5.50;;
54923;SDS011;40825;52.270;20.984;2024-01-15T12:45:05;13.90;;;5.70;;
54923;SDS011;40825;52.270;20.984;2024-01-15T12:47:31;15.50;;;5.80;;
54923;SDS011;40825;52.270;20.984;2024-01-15T12:49:57;14.60;;;5.80;;
54923;SDS011;40825;52.270;20.984;2024-01-15T12:52:26;14.80;;;6.00;;
54923;SDS011;40825;52.270;20.984;2024-01-15T12:54:52;13.10;;;5.70;;
54923;SDS011;40825;52.270;20.984;2024-01-15T12:57:18;16.00;;;6.10;;
54923;SDS011;40825;52.270;20.984;2024-01-15T12:59:44;15.20;;;6.70;;
54923;SDS011;40825;52.270;20.984;2024-01-15T13:02:10;16.20;;;5.90;;
54923;SDS011;40825;52.270;20.984;2024-01-15T13:07:05;16.10;;;6.80;;
54923;SDS011;40825;52.270;20.984;2024-01-15T13:09:32;14.50;;;5.10;;
54923;SDS011;40825;52.270;20.984;2024-01-15T13:11:58;12.90;;;5.20;;
54923;SDS011;40825;52.270;20.984;2024-01-15T13:14:24;15.20;;;5.70;;
54923;SDS011;40825;52.270;20.984;2024-01-15T13:16:50;14.90;;;6.50;;
54923;SDS011;40825;52.270;20.984;2024-01-15T13:19:16;13.60;;;5.10;;
54923;SDS011;40825;52.270;20.984;2024-01-15T13:21:42;13.50;;;5.60;;
54923;SDS011;40825;52.270;20.984;2024-01-15T13:24:08;11.00;;;5.00;;
54923;SDS011;40825;52.270;20.984;2024-01-15T13:26:34;11.90;;;5.00;;
54923;SDS011;40825;52.270;20.984;2024-01-15T13:29:02;11.70;;;5.60;;
54923;SDS011;40825;52.270;20.984;2024-01-15T13:31:29;12.80;;;5.50;;
54923;SDS011;40825;52.270;20.984;2024-01-15T13:33:55;14.80;;;5.80;;
54923;SDS011;40825;52.270;20.984;2024-01-15T13:36:24;15.90;;;6.50;;
54923;SDS011;40825;52.270;20.984;2024-01-15T13:38:50;14.00;;;5.90;;
54923;SDS011;40825;52.270;20.984;2024-01-15T13:41:17;17.60;;;5.90;;
54923;SDS011;40825;52.270;20.984;2024-01-15T13:43:53;12.90;;;5.40;;
54923;SDS011;40825;52.270;20.984;2024-01-15T13:46:23;15.90;;;6.10;;
54923;SDS011;40825;52.270;20.984;2024-01-15T13:48:51;13.10;;;5.90;;
54923;SDS011;40825;52.270;20.984;2024-01-15T13:51:17;12.60;;;5.40;;
54923;SDS011;40825;52.270;20.984;2024-01-15T13:53:42;12.80;;;5.00;;
54923;SDS011;40825;52.270;20.984;2024-01-15T13:56:08;18.20;;;5.90;;
54923;SDS011;40825;52.270;20.984;2024-01-15T13:58:35;13.80;;;5.80;;
54923;SDS011;40825;52.270;20.984;2024-01-15T14:01:01;14.90;;;6.10;;
54923;SDS011;40825;52.270;20.984;2024-01-15T14:03:29;12.90;;;5.50;;
54923;SDS011;40825;52.270;20.984;2024-01-15T14:05:54;14.80;;;4.90;;
54923;SDS011;40825;52.270;20.984;2024-01-15T14:08:20;15.10;;;6.50;;
54923;SDS011;40825;52.270;20.984;2024-01-15T14:10:45;14.10;;;5.60;;
54923;SDS011;40825;52.270;20.984;2024-01-15T14:13:11;14.30;;;5.80;;
54923;SDS011;40825;52.270;20.984;2024-01-15T14:15:37;14.70;;;5.30;;
54923;SDS011;40825;52.270;20.984;2024-01-15T14:18:02;12.20;;;6.30;;
54923;SDS011;40825;52.270;20.984;2024-01-15T14:20:28;12.00;;;5.60;;
54923;SDS011;40825;52.270;20.984;2024-01-15T14:22:54;12.60;;;5.70;;
54923;SDS011;40825;52.270;20.984;2024-01-15T14:25:20;13.20;;;5.30;;
54923;SDS011;40825;52.270;20.984;2024-01-15T14:27:46;11.20;;;5.00;;
54923;SDS011;40825;52.270;20.984;2024-01-15T14:30:12;12.60;;;5.50;;
54923;SDS011;40825;52.270;20.984;2024-01-15T14:32:41;14.50;;;6.10;;
54923;SDS011;40825;52.270;20.984;2024-01-15T14:35:07;14.40;;;6.50;;
54923;SDS011;40825;52.270;20.984;2024-01-15T14:37:35;14.80;;;4.90;;
54923;SDS011;40825;52.270;20.984;2024-01-15T14:40:05;11.50;;;4.70;;
54923;SDS011;40825;52.270;20.984;2024-01-15T14:42:33;15.30;;;6.20;;